Time;durP1;ratioP1;P1;durP2;ratioP2;P2;SDS_P1;SDS_P2;PMS_P1;PMS_P2;Temp;Humidity;BMP_temperature;BMP_pressure;BME280_temperature;BME280_humidity;BME280_pressure;Samples;Min_cycle;Max_cycle;Signal;HPM_P1;HPM_P2
2021/08/31 00:01:05;;;;;;;2.95;2.50;;;15.70;99.90;;;;;;4857530;29;20543;-74
2021/08/31 00:03:51;;;;;;;2.75;2.55;;;15.60;99.90;;;;;;4854071;29;20919;-74
2021/08/31 00:06:38;;;;;;;2.50;2.30;;;15.60;99.90;;;;;;4835859;29;20512;-77
2021/08/31 00:09:24;;;;;;;2.72;2.47;;;15.60;99.90;;;;;;4833024;29;20465;-75
2021/08/31 00:12:10;;;;;;;2.80;2.60;;;15.60;99.90;;;;;;4841158;29;20416;-74
2021/08/31 00:14:56;;;;;;;2.20;2.00;;;15.60;99.90;;;;;;4827775;29;20440;-73
2021/08/31 00:17:43;;;;;;;2.80;2.60;;;15.50;99.90;;;;;;4856529;29;20516;-75
2021/08/31 00:20:29;;;;;;;2.90;2.60;;;15.50;99.90;;;;;;4845261;29;20926;-74
2021/08/31 00:23:15;;;;;;;3.88;2.65;;;15.50;99.90;;;;;;4861309;29;20412;-75
2021/08/31 00:26:01;;;;;;;2.30;2.15;;;15.40;99.90;;;;;;4844435;29;20389;-73
2021/08/31 00:28:47;;;;;;;2.60;2.40;;;15.50;99.90;;;;;;4859248;29;20409;-74
2021/08/31 00:31:33;;;;;;;3.13;2.50;;;15.40;99.90;;;;;;4859846;29;20419;-73
2021/08/31 00:34:19;;;;;;;4.20;2.33;;;15.40;99.90;;;;;;4847774;29;20498;-73
2021/08/31 00:37:05;;;;;;;2.30;2.10;;;15.50;99.90;;;;;;4839385;29;20810;-74
2021/08/31 00:39:51;;;;;;;2.30;2.10;;;15.50;99.90;;;;;;4842063;29;20474;-73
2021/08/31 00:42:37;;;;;;;2.53;2.33;;;15.50;99.90;;;;;;4835490;29;20794;-73
2021/08/31 00:45:24;;;;;;;2.60;2.40;;;15.50;99.90;;;;;;4835824;29;20420;-74
2021/08/31 00:48:10;;;;;;;2.78;2.42;;;15.50;99.90;;;;;;4846309;29;20472;-74
2021/08/31 00:50:56;;;;;;;3.47;2.50;;;15.50;99.90;;;;;;4859751;29;20412;-75
2021/08/31 00:53:42;;;;;;;2.70;2.50;;;15.50;99.90;;;;;;4836442;29;20422;-74
2021/08/31 00:56:28;;;;;;;3.20;2.88;;;15.50;99.90;;;;;;4843411;29;20419;-76
2021/08/31 00:59:16;;;;;;;5.13;2.40;;;15.40;99.90;;;;;;4832739;29;20416;-74
2021/08/31 01:02:02;;;;;;;2.50;2.22;;;15.40;99.90;;;;;;4853542;29;20916;-74
2021/08/31 01:04:49;;;;;;;2.40;2.25;;;15.40;99.90;;;;;;4866488;29;20416;-74
2021/08/31 01:07:35;;;;;;;2.67;2.47;;;15.40;99.90;;;;;;4833334;29;20816;-73
2021/08/31 01:10:21;;;;;;;2.70;2.50;;;15.40;99.90;;;;;;4858686;29;20492;-73
2021/08/31 01:13:07;;;;;;;3.13;2.80;;;15.40;99.90;;;;;;4858868;29;20922;-74
2021/08/31 01:15:53;;;;;;;5.22;2.70;;;15.40;99.90;;;;;;4828485;29;20411;-73
2021/08/31 01:18:40;;;;;;;7.00;3.08;;;15.40;99.90;;;;;;4835006;29;20422;-74
2021/08/31 01:21:26;;;;;;;3.50;2.95;;;15.30;99.90;;;;;;4840474;29;20420;-74
2021/08/31 01:24:12;;;;;;;2.92;2.70;;;15.30;99.90;;;;;;4860914;29;20393;-74
2021/08/31 01:26:59;;;;;;;3.13;2.60;;;15.30;99.90;;;;;;4866017;29;20412;-74
2021/08/31 01:29:45;;;;;;;4.07;3.70;;;15.30;99.90;;;;;;4876528;29;20420;-76
2021/08/31 01:32:31;;;;;;;3.50;3.20;;;15.30;99.90;;;;;;4840078;29;20464;-74
2021/08/31 01:35:17;;;;;;;3.58;3.22;;;15.30;99.90;;;;;;4845902;29;20409;-73
2021/08/31 01:38:03;;;;;;;3.17;2.97;;;15.30;99.90;;;;;;4870995;29;20404;-73
2021/08/31 01:40:49;;;;;;;3.00;2.78;;;15.30;99.90;;;;;;4858399;29;20474;-74
2021/08/31 01:43:35;;;;;;;3.38;2.95;;;15.30;99.90;;;;;;4858110;29;20454;-76
2021/08/31 01:46:21;;;;;;;3.40;3.10;;;15.30;99.90;;;;;;4877245;29;20414;-76
2021/08/31 01:49:07;;;;;;;3.38;3.08;;;15.40;99.90;;;;;;4844430;29;20427;-74
2021/08/31 01:51:53;;;;;;;3.75;3.45;;;15.40;99.90;;;;;;4844056;29;20409;-74
2021/08/31 01:54:39;;;;;;;3.90;3.47;;;15.40;99.90;;;;;;4850948;29;20401;-72
2021/08/31 01:57:25;;;;;;;3.63;3.25;;;15.30;99.90;;;;;;4857486;29;20901;-75
2021/08/31 02:00:12;;;;;;;3.60;3.30;;;15.30;99.90;;;;;;4845661;29;20474;-73
2021/08/31 02:02:58;;;;;;;3.63;3.33;;;15.30;99.90;;;;;;4846115;29;20432;-75
2021/08/31 02:05:44;;;;;;;3.97;3.08;;;15.40;99.90;;;;;;4846449;29;20403;-75
2021/08/31 02:08:30;;;;;;;3.70;3.40;;;15.30;99.90;;;;;;4852077;29;20482;-75
2021/08/31 02:11:16;;;;;;;4.30;3.55;;;15.30;99.90;;;;;;4826837;29;20407;-75
2021/08/31 02:14:02;;;;;;;3.65;3.35;;;15.30;99.90;;;;;;4846166;29;20428;-74
2021/08/31 02:16:49;;;;;;;4.00;3.47;;;15.30;99.90;;;;;;4858302;29;21393;-75
2021/08/31 02:19:35;;;;;;;3.88;3.40;;;15.30;99.90;;;;;;4853479;29;20413;-74
2021/08/31 02:22:21;;;;;;;4.05;3.65;;;15.30;99.90;;;;;;4815186;29;20991;-73
2021/08/31 02:25:08;;;;;;;3.50;3.20;;;15.20;99.90;;;;;;4849870;29;20488;-76
2021/08/31 02:27:54;;;;;;;3.90;3.60;;;15.20;99.90;;;;;;4833187;29;20415;-73
2021/08/31 02:30:40;;;;;;;3.58;3.05;;;15.20;99.90;;;;;;4833445;29;20915;-73
2021/08/31 02:33:26;;;;;;;4.00;3.60;;;15.20;99.90;;;;;;4845298;29;20408;-74
2021/08/31 02:36:12;;;;;;;4.22;3.30;;;15.20;99.90;;;;;;4855771;29;20450;-74
2021/08/31 02:38:58;;;;;;;4.70;2.92;;;15.20;99.90;;;;;;4840252;29;20403;-74
2021/08/31 02:41:44;;;;;;;3.35;3.05;;;15.30;99.90;;;;;;4838435;29;20448;-74
2021/08/31 02:44:30;;;;;;;3.67;3.22;;;15.30;99.90;;;;;;4848951;29;20690;-74
2021/08/31 02:47:16;;;;;;;4.93;2.70;;;15.20;99.90;;;;;;4855587;29;20454;-73
2021/08/31 02:50:03;;;;;;;4.67;2.93;;;15.20;99.90;;;;;;4845696;29;20412;-73
2021/08/31 02:52:49;;;;;;;3.85;3.30;;;15.20;99.90;;;;;;4844279;29;20420;-75
2021/08/31 02:55:35;;;;;;;3.35;3.05;;;15.20;99.90;;;;;;4847332;29;20418;-75
2021/08/31 02:58:21;;;;;;;4.37;3.50;;;15.20;99.90;;;;;;4841460;29;20414;-73
2021/08/31 03:04:12;;;;;;;4.05;3.30;;;15.10;99.90;;;;;;4841416;29;20934;-75
2021/08/31 03:06:58;;;;;;;3.40;3.08;;;15.10;99.90;;;;;;4857741;29;20425;-75
2021/08/31 03:09:44;;;;;;;3.75;3.30;;;15.10;99.90;;;;;;4855790;29;20923;-74
2021/08/31 03:12:31;;;;;;;6.38;2.90;;;15.10;99.90;;;;;;4856089;29;20473;-75
2021/08/31 03:15:17;;;;;;;3.17;2.88;;;15.10;99.90;;;;;;4834108;29;20407;-75
2021/08/31 03:18:03;;;;;;;3.17;2.88;;;15.10;99.90;;;;;;4830171;29;20504;-75
2021/08/31 03:20:49;;;;;;;3.30;3.00;;;15.20;99.90;;;;;;4833128;29;20937;-76
2021/08/31 03:23:35;;;;;;;5.17;2.97;;;15.10;99.90;;;;;;4833947;29;20412;-74
2021/08/31 03:26:47;;;;;;;3.20;2.85;;;15.10;99.90;;;;;;4840542;29;20432;-77
2021/08/31 03:29:33;;;;;;;3.05;2.75;;;15.10;99.90;;;;;;4848064;29;20922;-75
2021/08/31 03:32:19;;;;;;;3.17;2.88;;;15.10;99.90;;;;;;4866605;29;20460;-74
2021/08/31 03:35:06;;;;;;;5.03;3.25;;;15.10;99.90;;;;;;4847920;29;20417;-75
2021/08/31 03:37:52;;;;;;;3.00;2.70;;;15.10;99.90;;;;;;4824031;29;21106;-74
2021/08/31 03:40:38;;;;;;;2.97;2.78;;;15.10;99.90;;;;;;4838526;29;20395;-74
2021/08/31 03:43:24;;;;;;;3.40;3.10;;;15.00;99.90;;;;;;4801294;29;20940;-73
2021/08/31 03:46:10;;;;;;;3.08;2.88;;;15.00;99.90;;;;;;4824078;29;20408;-76
2021/08/31 03:48:56;;;;;;;3.72;3.10;;;15.10;99.90;;;;;;4831220;29;20436;-76
2021/08/31 03:51:42;;;;;;;4.20;3.33;;;15.00;99.90;;;;;;4831610;29;20490;-75
2021/08/31 03:54:28;;;;;;;3.50;3.20;;;15.00;99.90;;;;;;4831449;29;20404;-75
2021/08/31 03:57:14;;;;;;;2.97;2.78;;;15.00;99.90;;;;;;4824774;29;20406;-75
2021/08/31 04:00:01;;;;;;;3.13;2.88;;;15.00;99.90;;;;;;4849502;29;20436;-76
2021/08/31 04:02:47;;;;;;;3.87;3.00;;;15.00;99.90;;;;;;4837429;29;20413;-75
2021/08/31 04:05:33;;;;;;;5.00;2.63;;;15.00;99.90;;;;;;4841762;29;20516;-74
2021/08/31 04:08:19;;;;;;;6.25;3.22;;;15.00;99.90;;;;;;4844793;29;20759;-76
2021/08/31 04:11:05;;;;;;;3.20;2.90;;;15.00;99.90;;;;;;4831664;29;20800;-76
2021/08/31 04:13:51;;;;;;;3.03;2.72;;;15.00;99.90;;;;;;4855015;29;20405;-74
2021/08/31 04:16:37;;;;;;;3.03;2.83;;;15.00;99.90;;;;;;4841066;29;20904;-75
2021/08/31 04:19:23;;;;;;;2.88;2.58;;;15.00;99.90;;;;;;4824720;29;20422;-75
2021/08/31 04:22:09;;;;;;;2.75;2.53;;;15.00;99.90;;;;;;4826808;29;20426;-75
2021/08/31 04:24:55;;;;;;;2.78;2.58;;;15.00;99.90;;;;;;4828402;29;20512;-75
2021/08/31 04:27:41;;;;;;;2.97;2.78;;;15.00;99.90;;;;;;4856969;29;20416;-74
2021/08/31 04:30:27;;;;;;;3.20;2.90;;;15.10;99.90;;;;;;4857921;29;20426;-75
2021/08/31 04:33:13;;;;;;;3.05;2.78;;;15.10;99.90;;;;;;4844333;29;21015;-75
2021/08/31 04:36:00;;;;;;;3.10;2.90;;;15.00;99.90;;;;;;4828496;29;20429;-75
2021/08/31 04:38:46;;;;;;;3.30;3.00;;;15.00;99.90;;;;;;4828712;29;20422;-76
2021/08/31 04:41:32;;;;;;;2.80;2.60;;;15.00;99.90;;;;;;4841002;29;20415;-76
2021/08/31 04:44:23;;;;;;;3.35;3.05;;;15.00;99.90;;;;;;4843583;29;20410;-72
2021/08/31 04:47:09;;;;;;;3.35;3.05;;;14.90;99.90;;;;;;4864222;29;20409;-74
2021/08/31 04:49:55;;;;;;;3.13;2.77;;;15.00;99.90;;;;;;4856713;29;20488;-73
2021/08/31 04:52:41;;;;;;;3.47;3.00;;;14.90;99.90;;;;;;4836721;29;20782;-74
2021/08/31 04:55:28;;;;;;;6.10;3.30;;;15.00;99.90;;;;;;4837029;29;21138;-74
2021/08/31 04:58:14;;;;;;;2.70;2.50;;;15.00;99.90;;;;;;4841658;29;20428;-74
2021/08/31 05:01:01;;;;;;;3.13;2.53;;;15.00;99.90;;;;;;4844313;29;20435;-74
2021/08/31 05:03:47;;;;;;;5.20;3.17;;;15.00;99.90;;;;;;4844293;29;20407;-75
2021/08/31 05:06:34;;;;;;;3.65;3.30;;;15.00;99.90;;;;;;4856364;29;20451;-75
2021/08/31 05:09:19;;;;;;;2.78;2.58;;;15.00;99.90;;;;;;4830952;29;20410;-73
2021/08/31 05:12:06;;;;;;;2.90;2.70;;;15.00;99.90;;;;;;4861743;29;20443;-74
2021/08/31 05:14:52;;;;;;;3.08;2.85;;;15.00;99.90;;;;;;4864666;29;20417;-74
2021/08/31 05:17:39;;;;;;;3.15;2.88;;;15.00;99.90;;;;;;4871332;29;20511;-75
2021/08/31 05:20:27;;;;;;;3.25;2.80;;;15.00;99.90;;;;;;4851550;29;20461;-74
2021/08/31 05:23:14;;;;;;;3.13;2.78;;;15.00;99.90;;;;;;4834135;29;20406;-75
2021/08/31 05:26:00;;;;;;;3.17;2.87;;;15.00;99.90;;;;;;4824203;29;20401;-76
2021/08/31 05:28:46;;;;;;;3.15;2.88;;;15.00;99.90;;;;;;4844473;29;20414;-75
2021/08/31 05:31:32;;;;;;;3.03;2.78;;;15.10;99.90;;;;;;4832711;29;20401;-75
2021/08/31 05:34:18;;;;;;;3.45;2.88;;;15.10;99.90;;;;;;4860153;29;20419;-75
2021/08/31 05:37:04;;;;;;;3.22;2.90;;;15.10;99.90;;;;;;4853033;29;20985;-75
2021/08/31 05:39:50;;;;;;;3.47;2.80;;;15.20;99.90;;;;;;4840767;29;20398;-75
2021/08/31 05:42:36;;;;;;;3.53;2.92;;;15.20;99.90;;;;;;4848191;29;20421;-77
2021/08/31 05:45:22;;;;;;;3.43;3.00;;;15.10;99.90;;;;;;4858958;29;20413;-76
2021/08/31 05:48:08;;;;;;;3.20;2.90;;;15.20;99.90;;;;;;4843968;29;20456;-75
2021/08/31 05:50:54;;;;;;;5.45;3.40;;;15.20;99.90;;;;;;4858819;29;20401;-75
2021/08/31 05:53:40;;;;;;;3.20;2.80;;;15.20;99.90;;;;;;4857563;29;20409;-75
2021/08/31 05:56:26;;;;;;;3.38;2.85;;;15.20;99.90;;;;;;4866110;29;20518;-75
2021/08/31 05:59:12;;;;;;;3.17;2.88;;;15.20;99.90;;;;;;4831795;29;20416;-74
2021/08/31 06:01:58;;;;;;;3.33;2.97;;;15.30;99.90;;;;;;4858277;29;20413;-77
2021/08/31 06:04:44;;;;;;;2.63;2.42;;;15.50;99.90;;;;;;4860553;29;20430;-74
2021/08/31 06:07:33;;;;;;;4.40;3.15;;;15.40;99.90;;;;;;4857104;29;20833;-76
2021/08/31 06:10:20;;;;;;;3.03;2.73;;;15.40;99.90;;;;;;4860916;29;20412;-74
2021/08/31 06:13:06;;;;;;;2.80;2.60;;;15.40;99.90;;;;;;4863394;29;20941;-74
2021/08/31 06:15:52;;;;;;;2.55;2.35;;;15.40;99.90;;;;;;4871407;29;20465;-75
2021/08/31 06:18:38;;;;;;;3.40;3.10;;;15.40;99.90;;;;;;4830544;29;20429;-75
2021/08/31 06:21:24;;;;;;;2.67;2.45;;;15.40;99.90;;;;;;4821376;29;20436;-76
2021/08/31 06:24:10;;;;;;;5.63;2.80;;;15.50;99.90;;;;;;4846338;29;20463;-74
2021/08/31 06:26:56;;;;;;;3.33;2.83;;;15.50;99.90;;;;;;4841712;29;20402;-75
2021/08/31 06:29:42;;;;;;;2.80;2.60;;;15.50;99.90;;;;;;4841274;29;20405;-76
2021/08/31 06:32:28;;;;;;;3.40;3.10;;;15.50;99.90;;;;;;4832941;29;20443;-75
2021/08/31 06:35:14;;;;;;;2.83;2.50;;;15.50;99.90;;;;;;4845623;29;20408;-76
2021/08/31 06:38:00;;;;;;;2.97;2.78;;;15.50;99.90;;;;;;4842626;29;20413;-75
2021/08/31 06:40:46;;;;;;;2.65;2.45;;;15.50;99.90;;;;;;4844873;29;20908;-75
2021/08/31 06:43:32;;;;;;;3.45;2.55;;;15.60;99.90;;;;;;4858036;29;20488;-75
2021/08/31 06:46:18;;;;;;;3.97;3.08;;;15.60;99.90;;;;;;4858390;29;20400;-75
2021/08/31 06:49:05;;;;;;;3.15;2.85;;;15.50;99.90;;;;;;4832915;29;20408;-74
2021/08/31 06:51:51;;;;;;;3.45;3.15;;;15.50;99.90;;;;;;4843970;29;20400;-77
2021/08/31 06:54:37;;;;;;;3.33;3.03;;;15.50;99.90;;;;;;4860416;29;20482;-77
2021/08/31 06:57:23;;;;;;;3.20;2.90;;;15.40;99.90;;;;;;4845422;29;20420;-76
2021/08/31 07:00:09;;;;;;;3.17;2.88;;;15.50;99.90;;;;;;4832830;29;20401;-74
2021/08/31 07:02:55;;;;;;;3.25;2.92;;;15.40;99.90;;;;;;4844756;29;20436;-75
2021/08/31 07:05:41;;;;;;;2.92;2.55;;;15.40;99.90;;;;;;4843015;29;20516;-75
2021/08/31 07:08:27;;;;;;;2.90;2.70;;;15.50;99.90;;;;;;4871580;29;20410;-75
2021/08/31 07:11:13;;;;;;;3.30;3.00;;;15.50;99.90;;;;;;4839877;29;20407;-75
2021/08/31 07:13:59;;;;;;;3.30;3.00;;;15.50;99.90;;;;;;4814703;29;22005;-75
2021/08/31 07:16:45;;;;;;;3.17;2.83;;;15.50;99.90;;;;;;4848978;29;20405;-75
2021/08/31 07:19:31;;;;;;;3.72;2.78;;;15.50;99.90;;;;;;4871943;29;20428;-76
2021/08/31 07:22:17;;;;;;;3.08;2.83;;;15.50;99.90;;;;;;4833861;29;21037;-76
2021/08/31 07:25:04;;;;;;;3.28;2.45;;;15.50;99.90;;;;;;4861053;29;20464;-74
2021/08/31 07:27:50;;;;;;;2.95;2.70;;;15.50;99.90;;;;;;4841240;29;20414;-74
2021/08/31 07:30:36;;;;;;;2.60;2.40;;;15.50;99.90;;;;;;4862770;29;20463;-74
2021/08/31 07:33:22;;;;;;;2.83;2.60;;;15.50;99.90;;;;;;4845183;29;20862;-75
2021/08/31 07:36:08;;;;;;;2.83;2.40;;;15.50;99.90;;;;;;4857663;29;20944;-76
2021/08/31 07:38:55;;;;;;;2.58;2.38;;;15.50;99.90;;;;;;4831710;29;20514;-74
2021/08/31 07:41:41;;;;;;;2.50;2.30;;;15.50;99.90;;;;;;4856027;29;20488;-76
2021/08/31 07:44:27;;;;;;;2.30;2.17;;;15.60;99.90;;;;;;4860067;29;20517;-75
2021/08/31 07:47:14;;;;;;;3.58;2.85;;;15.60;99.90;;;;;;4836039;29;20397;-74
2021/08/31 07:50:05;;;;;;;2.42;2.22;;;15.60;99.90;;;;;;4832092;29;20416;-74
2021/08/31 07:52:56;;;;;;;2.60;2.40;;;15.60;99.90;;;;;;4826390;29;20486;-77
2021/08/31 07:55:45;;;;;;;3.05;2.85;;;15.70;99.90;;;;;;4839640;29;20404;-76
2021/08/31 07:58:33;;;;;;;2.83;2.58;;;15.70;99.90;;;;;;4842654;29;20412;-77
2021/08/31 08:01:19;;;;;;;2.60;2.40;;;15.70;99.90;;;;;;4855003;29;20413;-76
2021/08/31 08:04:06;;;;;;;3.60;2.70;;;15.80;99.90;;;;;;4857304;29;20459;-73
2021/08/31 08:06:52;;;;;;;3.07;2.77;;;15.90;99.90;;;;;;4832419;29;20420;-73
2021/08/31 08:09:38;;;;;;;3.22;2.92;;;15.90;99.90;;;;;;4834388;29;20902;-73
2021/08/31 08:12:24;;;;;;;3.00;2.70;;;15.90;99.90;;;;;;4843997;29;20424;-73
2021/08/31 08:15:10;;;;;;;3.78;3.08;;;15.90;99.90;;;;;;4839731;29;20489;-74
2021/08/31 08:17:56;;;;;;;3.53;3.20;;;16.00;99.90;;;;;;4829238;29;20425;-73
2021/08/31 08:20:44;;;;;;;3.05;2.75;;;16.10;99.90;;;;;;4844207;29;20401;-73
2021/08/31 08:23:29;;;;;;;3.03;2.80;;;16.10;99.90;;;;;;4855766;29;20424;-73
2021/08/31 08:26:15;;;;;;;3.30;3.00;;;16.20;99.90;;;;;;4850777;29;20403;-73
2021/08/31 08:29:05;;;;;;;3.13;2.78;;;16.00;99.90;;;;;;4845588;29;20401;-73
2021/08/31 08:31:51;;;;;;;3.90;3.00;;;16.10;99.90;;;;;;4855143;29;20814;-73
2021/08/31 08:34:37;;;;;;;3.70;2.78;;;16.20;99.90;;;;;;4856201;29;20986;-73
2021/08/31 08:37:23;;;;;;;4.40;3.20;;;16.30;99.90;;;;;;4856300;29;20424;-73
2021/08/31 08:40:10;;;;;;;5.88;3.08;;;16.40;99.90;;;;;;4855168;29;20824;-74
2021/08/31 08:42:56;;;;;;;2.83;2.63;;;16.40;99.90;;;;;;4843091;29;20417;-74
2021/08/31 08:45:44;;;;;;;3.00;2.80;;;16.50;99.90;;;;;;4827763;29;20469;-73
2021/08/31 08:48:30;;;;;;;3.07;2.77;;;16.60;99.90;;;;;;4848163;29;20428;-72
2021/08/31 08:51:16;;;;;;;2.97;2.77;;;16.70;99.90;;;;;;4834391;29;20400;-72
2021/08/31 08:54:02;;;;;;;3.30;3.00;;;16.80;99.90;;;;;;4821479;29;20934;-73
2021/08/31 08:56:48;;;;;;;3.05;2.78;;;17.00;99.90;;;;;;4861538;29;20404;-72
2021/08/31 08:59:38;;;;;;;3.13;2.83;;;17.10;99.90;;;;;;4852036;29;20396;-73
2021/08/31 09:02:34;;;;;;;3.15;2.90;;;17.30;99.90;;;;;;4848287;29;20524;-72
2021/08/31 09:05:31;;;;;;;3.25;2.95;;;17.40;99.90;;;;;;4854084;29;20500;-73
2021/08/31 09:08:17;;;;;;;2.75;2.55;;;17.60;99.90;;;;;;4853450;29;20836;-72
2021/08/31 09:11:16;;;;;;;3.45;3.13;;;17.70;99.90;;;;;;4860505;29;20418;-73
2021/08/31 09:14:20;;;;;;;2.60;2.40;;;17.80;99.90;;;;;;4863398;29;20728;-73
2021/08/31 09:17:09;;;;;;;4.07;3.13;;;18.00;99.90;;;;;;4865219;29;20416;-73
2021/08/31 09:19:55;;;;;;;3.17;2.38;;;18.00;99.90;;;;;;4846033;29;20433;-73
2021/08/31 09:22:41;;;;;;;2.60;2.40;;;18.00;99.90;;;;;;4841923;29;20421;-72
2021/08/31 09:25:34;;;;;;;3.50;3.08;;;18.00;99.90;;;;;;4849117;29;20412;-75
2021/08/31 09:28:31;;;;;;;3.10;2.80;;;18.20;99.90;;;;;;4830583;29;20395;-74
2021/08/31 09:31:19;;;;;;;4.80;2.88;;;18.30;99.90;;;;;;4847294;29;20401;-74
2021/08/31 09:34:05;;;;;;;2.60;2.40;;;18.40;99.90;;;;;;4863502;29;20478;-74
2021/08/31 09:36:51;;;;;;;3.15;2.78;;;18.40;99.90;;;;;;4866010;29;20980;-74
2021/08/31 09:39:37;;;;;;;3.20;2.90;;;18.50;99.90;;;;;;4857949;29;20401;-74
2021/08/31 09:42:23;;;;;;;3.00;2.80;;;18.60;99.90;;;;;;4852875;29;20412;-74
2021/08/31 09:45:09;;;;;;;2.87;2.30;;;18.60;99.90;;;;;;4880880;29;20403;-74
2021/08/31 09:47:55;;;;;;;2.95;2.75;;;18.70;99.90;;;;;;4863571;29;20474;-74
2021/08/31 09:50:43;;;;;;;2.58;2.38;;;18.70;99.90;;;;;;4866199;29;20943;-74
2021/08/31 09:53:29;;;;;;;2.50;2.30;;;18.80;99.90;;;;;;4864240;29;20413;-73
2021/08/31 09:56:15;;;;;;;3.60;2.80;;;18.90;99.90;;;;;;4861304;29;20397;-75
2021/08/31 09:59:01;;;;;;;2.45;2.25;;;19.00;99.90;;;;;;4857298;29;20405;-75
2021/08/31 10:01:47;;;;;;;5.13;3.28;;;19.20;99.90;;;;;;4846303;29;20421;-74
2021/08/31 10:04:33;;;;;;;2.92;2.63;;;19.20;99.90;;;;;;4833414;29;20432;-75
2021/08/31 10:07:21;;;;;;;2.57;2.37;;;19.30;99.90;;;;;;4863012;29;20826;-74
2021/08/31 10:10:07;;;;;;;3.40;3.07;;;19.50;99.90;;;;;;4859316;29;20405;-73
2021/08/31 10:12:53;;;;;;;3.65;2.97;;;19.60;99.90;;;;;;4852585;29;20412;-75
2021/08/31 10:15:47;;;;;;;2.83;2.63;;;19.50;99.90;;;;;;4858110;29;20405;-73
2021/08/31 10:18:33;;;;;;;3.33;3.03;;;19.40;99.90;;;;;;4837355;29;20481;-74
2021/08/31 10:21:19;;;;;;;3.72;2.85;;;19.40;99.90;;;;;;4860235;29;20421;-74
2021/08/31 10:24:05;;;;;;;2.95;2.47;;;19.40;99.90;;;;;;4834444;29;20464;-74
2021/08/31 10:26:51;;;;;;;4.45;2.97;;;19.50;99.90;;;;;;4844209;29;20407;-74
2021/08/31 10:29:37;;;;;;;2.55;2.33;;;19.60;99.90;;;;;;4852597;29;20430;-74
2021/08/31 10:32:31;;;;;;;2.67;2.47;;;19.70;99.90;;;;;;4815544;29;20406;-74
2021/08/31 10:35:30;;;;;;;2.80;2.60;;;19.80;99.90;;;;;;4835949;29;20409;-74
2021/08/31 10:38:16;;;;;;;2.40;2.20;;;19.70;99.90;;;;;;4862946;29;20403;-74
2021/08/31 10:41:02;;;;;;;2.95;2.70;;;19.70;99.90;;;;;;4874849;29;20439;-74
2021/08/31 10:43:52;;;;;;;2.80;2.20;;;19.70;99.90;;;;;;4876684;29;20936;-74
2021/08/31 10:46:56;;;;;;;2.50;2.20;;;19.80;99.90;;;;;;4874605;29;20455;-74
2021/08/31 10:49:57;;;;;;;3.30;2.72;;;19.80;99.90;;;;;;4887596;29;20436;-75
2021/08/31 10:52:53;;;;;;;2.70;2.50;;;19.80;99.90;;;;;;4879653;29;20408;-74
2021/08/31 10:55:40;;;;;;;3.13;2.22;;;19.80;99.90;;;;;;4858971;29;20400;-73
2021/08/31 10:58:42;;;;;;;3.00;2.80;;;19.80;99.90;;;;;;4855340;29;20424;-74
2021/08/31 11:01:41;;;;;;;2.88;2.63;;;19.80;99.90;;;;;;4857948;29;20514;-74
2021/08/31 11:04:29;;;;;;;2.90;2.58;;;19.60;99.90;;;;;;4845069;29;20416;-74
2021/08/31 11:07:15;;;;;;;3.70;2.60;;;19.50;99.90;;;;;;4831729;29;20404;-74
2021/08/31 11:10:01;;;;;;;3.60;3.25;;;19.50;99.90;;;;;;4832077;29;20486;-73
2021/08/31 11:12:47;;;;;;;2.97;2.67;;;19.40;99.90;;;;;;4831167;29;20420;-73
2021/08/31 11:15:33;;;;;;;3.00;2.67;;;19.30;99.90;;;;;;4840748;29;20424;-74
2021/08/31 11:18:19;;;;;;;3.03;2.70;;;19.40;99.90;;;;;;4847718;29;21115;-74
2021/08/31 11:21:05;;;;;;;2.97;2.78;;;19.40;99.90;;;;;;4826528;29;20884;-76
2021/08/31 11:23:51;;;;;;;3.13;2.83;;;19.40;99.90;;;;;;4834019;29;20404;-74
2021/08/31 11:26:37;;;;;;;3.00;2.70;;;19.50;99.90;;;;;;4844447;29;20387;-72
2021/08/31 11:29:23;;;;;;;3.97;3.05;;;19.60;99.90;;;;;;4869647;29;20405;-74
2021/08/31 11:32:09;;;;;;;3.30;3.10;;;19.60;99.90;;;;;;4826428;29;20414;-73
2021/08/31 11:35:03;;;;;;;3.47;3.10;;;19.50;99.90;;;;;;4849918;29;20401;-73
2021/08/31 11:37:50;;;;;;;2.78;2.58;;;19.60;99.90;;;;;;4841433;29;20411;-74
2021/08/31 11:40:36;;;;;;;2.60;2.40;;;19.50;99.90;;;;;;4845112;29;20397;-75
2021/08/31 11:43:31;;;;;;;3.10;2.80;;;19.60;99.90;;;;;;4841501;29;20437;-74
2021/08/31 11:46:21;;;;;;;2.95;2.65;;;19.60;99.90;;;;;;4850469;29;20419;-74
2021/08/31 11:49:19;;;;;;;3.13;2.83;;;19.70;99.90;;;;;;4826581;29;20430;-75
2021/08/31 11:52:14;;;;;;;2.72;2.53;;;19.60;99.90;;;;;;4841008;29;20455;-74
2021/08/31 11:55:00;;;;;;;2.97;2.67;;;19.70;99.90;;;;;;4846856;29;20409;-74
2021/08/31 11:57:46;;;;;;;3.45;2.38;;;19.70;99.90;;;;;;4842662;29;20484;-74
2021/08/31 12:00:42;;;;;;;2.80;2.58;;;19.70;99.90;;;;;;4846001;29;20413;-74
2021/08/31 12:03:30;;;;;;;2.60;2.40;;;19.50;99.90;;;;;;4856060;29;20455;-74
2021/08/31 12:06:16;;;;;;;2.50;2.30;;;19.40;99.90;;;;;;4867159;29;20398;-73
2021/08/31 12:09:02;;;;;;;2.85;2.60;;;19.50;99.90;;;;;;4853806;29;20401;-74
2021/08/31 12:11:48;;;;;;;2.85;2.58;;;19.50;99.90;;;;;;4822076;29;20409;-74
2021/08/31 12:14:34;;;;;;;3.08;2.67;;;19.60;99.90;;;;;;4845951;29;20783;-74
2021/08/31 12:17:42;;;;;;;2.80;2.60;;;19.60;99.90;;;;;;4859381;29;20411;-74
2021/08/31 12:20:28;;;;;;;2.57;2.37;;;19.80;99.90;;;;;;4887693;29;20988;-74
2021/08/31 12:23:14;;;;;;;2.55;2.35;;;20.00;99.90;;;;;;4848714;29;20480;-75
2021/08/31 12:26:00;;;;;;;2.85;2.55;;;20.20;99.90;;;;;;4848982;29;20937;-75
2021/08/31 12:29:10;;;;;;;2.90;2.70;;;20.20;99.90;;;;;;4872693;29;20400;-74
2021/08/31 12:32:06;;;;;;;2.58;2.38;;;20.10;99.90;;;;;;4845858;29;20480;-74
2021/08/31 12:34:52;;;;;;;3.30;2.90;;;20.10;99.90;;;;;;4852452;29;20403;-74
2021/08/31 12:37:38;;;;;;;2.67;2.47;;;20.10;99.90;;;;;;4845867;29;20908;-74
2021/08/31 12:40:24;;;;;;;2.95;2.70;;;19.90;99.90;;;;;;4835799;29;20430;-73
2021/08/31 12:43:11;;;;;;;3.22;2.90;;;20.10;99.90;;;;;;4847462;29;20938;-74
2021/08/31 12:45:58;;;;;;;2.80;2.60;;;20.00;99.90;;;;;;4819370;29;20850;-75
2021/08/31 12:48:45;;;;;;;3.55;2.53;;;20.10;99.90;;;;;;4837511;29;20487;-74
2021/08/31 12:51:33;;;;;;;2.97;2.67;;;20.40;99.90;;;;;;4864866;29;20434;-74
2021/08/31 12:54:30;;;;;;;2.83;2.47;;;20.80;99.90;;;;;;4817706;29;20402;-75
2021/08/31 12:57:22;;;;;;;3.00;2.60;;;20.90;99.90;;;;;;4826339;29;20402;-75
2021/08/31 13:00:26;;;;;;;2.60;2.40;;;21.00;99.90;;;;;;4841389;29;20425;-75
2021/08/31 13:03:29;;;;;;;2.63;2.37;;;21.30;99.90;;;;;;4829410;29;20420;-75
2021/08/31 13:06:37;;;;;;;2.73;2.33;;;21.60;99.90;;;;;;4839162;29;20537;-75
2021/08/31 13:09:25;;;;;;;2.40;2.22;;;22.10;99.90;;;;;;4865004;29;20410;-75
2021/08/31 13:12:15;;;;;;;2.80;2.57;;;22.20;99.90;;;;;;4874681;29;20406;-76
2021/08/31 13:15:01;;;;;;;6.95;3.05;;;22.10;99.90;;;;;;4846152;29;20406;-73
2021/08/31 13:17:47;;;;;;;2.72;2.53;;;22.30;99.90;;;;;;4876991;29;20457;-76
2021/08/31 13:20:33;;;;;;;3.40;2.43;;;22.50;99.90;;;;;;4865259;29;20765;-75
2021/08/31 13:23:19;;;;;;;3.25;2.17;;;22.40;99.90;;;;;;4857427;29;20414;-76
2021/08/31 13:26:07;;;;;;;2.83;2.53;;;22.70;99.90;;;;;;4817721;29;20784;-76
2021/08/31 13:28:53;;;;;;;2.90;2.60;;;22.90;99.90;;;;;;4829886;29;20470;-72
2021/08/31 13:31:40;;;;;;;2.90;2.60;;;23.10;99.90;;;;;;4830361;29;20788;-74
2021/08/31 13:34:26;;;;;;;4.13;2.40;;;23.40;99.90;;;;;;4860042;29;20413;-76
2021/08/31 13:37:12;;;;;;;2.45;2.25;;;23.70;99.90;;;;;;4859356;29;20955;-76
2021/08/31 13:39:58;;;;;;;2.47;2.27;;;24.50;99.90;;;;;;4860365;29;20420;-76
2021/08/31 13:42:44;;;;;;;2.70;2.50;;;25.50;99.90;;;;;;4841329;29;20517;-75
2021/08/31 13:45:30;;;;;;;3.10;2.28;;;25.10;99.90;;;;;;4851158;29;20421;-74
2021/08/31 13:48:16;;;;;;;2.22;2.03;;;24.10;99.90;;;;;;4861286;29;20775;-75
2021/08/31 13:51:02;;;;;;;2.30;2.10;;;23.80;99.90;;;;;;4861596;29;20469;-74
2021/08/31 13:53:48;;;;;;;2.42;2.22;;;24.00;99.90;;;;;;4845479;29;20401;-75
2021/08/31 13:56:34;;;;;;;2.00;1.88;;;24.40;99.90;;;;;;4846749;29;20484;-74
2021/08/31 13:59:21;;;;;;;2.63;2.15;;;24.80;99.90;;;;;;4857918;29;20450;-75
2021/08/31 14:02:06;;;;;;;2.45;2.03;;;25.30;99.90;;;;;;4857647;29;20447;-75
2021/08/31 14:04:53;;;;;;;3.25;2.22;;;25.40;99.90;;;;;;4858895;29;20420;-75
2021/08/31 14:07:39;;;;;;;2.97;2.17;;;24.90;99.90;;;;;;4844013;29;20415;-75
2021/08/31 14:10:25;;;;;;;2.30;2.10;;;24.90;99.90;;;;;;4865771;29;20403;-75
2021/08/31 14:13:11;;;;;;;2.03;1.73;;;24.40;99.90;;;;;;4856807;29;20444;-76
2021/08/31 14:15:57;;;;;;;2.20;2.00;;;24.70;99.90;;;;;;4837542;29;20400;-75
2021/08/31 14:18:44;;;;;;;2.17;1.98;;;25.30;99.90;;;;;;4840267;29;20426;-75
2021/08/31 14:21:30;;;;;;;2.15;1.95;;;25.90;99.90;;;;;;4845118;29;20454;-75
2021/08/31 14:24:16;;;;;;;2.30;2.10;;;26.60;99.90;;;;;;4844086;29;20457;-75
2021/08/31 14:27:02;;;;;;;1.70;1.60;;;27.50;99.90;;;;;;4873600;29;20407;-75
2021/08/31 14:29:49;;;;;;;2.10;1.88;;;27.70;99.90;;;;;;4858903;29;20459;-76
2021/08/31 14:32:36;;;;;;;2.60;1.92;;;26.80;99.90;;;;;;4857980;29;20510;-77
2021/08/31 14:35:22;;;;;;;2.17;1.95;;;26.50;99.90;;;;;;4858964;29;20401;-76